Ana Sayfa
METAR-TAF:

METAR-TAF

Havaalanları :

Eskişehir, Türkiye

Eskişehir Hava Üssü

Enlem: 39-47N, Boylam: 030-34E, yükseklik: 785 m

METAR: eksik

Saat: 11:38 (08:38 UTC)

Tahmin

Rapor saat 04:40 UTC de 3 saat ve 58 dakika önce yapıldı.
Ayın 23'si saat 06 UTC'den ayın 23'si saat 15 UTC'ye kadar geçerli Tahmin
Rüzgar değişken yönden 2 kt
Görüş mesafesi 10 km veya daha fazla
3500 ft yükseklikte parçalı bulutlu
10000 ft yükseklikte parçalı bulutlu
Olasılık 30% :
Geçici
ayın 23'si saat 11 UTC'den ayın 23'si saat 15 UTC'ye kadar
Rüzgar kuzeydan 12 kt

TAF: LTBI 230440Z 2306/2315 VRB02KT 9999 SCT035 SCT100 PROB30 TEMPO 2311/2315 36012KT

4.000'den fazla havaalanı için hava durumu gözlemleri ve tahminleri (METAR ve TAF raporları).

Kullanılabilir istasyonlar harita üzerinde sarı ve kırmızı noktalarla gösterilir.

İstasyonun adını görmek için fareyi noktanın üzerinde gezdirin.

Sonrasında hava gözlem ve tahminlerini görmek için tıklayın.

Haritayı değiştirmek için: yaklaştırmak için siyah artı işaretli yeşil düğmeye ve uzaklaştırmak için de eksi işaretli düğmeye hızla tıklayın; bitişik haritalar için yeşil okları kullanın.


METAR-TAF: